createdAt,value
2019-05-06T00:02:27.876Z,67.08
2019-05-06T00:04:58.534Z,67.78
2019-05-06T00:07:39.004Z,67.00
2019-05-06T00:10:24.624Z,67.53
2019-05-06T00:12:56.358Z,68.33
2019-05-06T00:15:28.686Z,68.26
2019-05-06T00:17:59.523Z,68.04
2019-05-06T00:20:30.195Z,68.25
2019-05-06T00:23:04.207Z,69.19
2019-05-06T00:25:39.334Z,69.13
2019-05-06T00:28:27.967Z,69.78
2019-05-06T00:31:12.821Z,69.94
2019-05-06T00:33:44.698Z,69.59
2019-05-06T00:36:20.660Z,69.09
2019-05-06T00:38:53.966Z,69.74
2019-05-06T00:41:29.024Z,69.37
2019-05-06T00:44:18.484Z,69.66
2019-05-06T00:46:49.131Z,69.51
2019-05-06T00:49:19.714Z,70.00
2019-05-06T00:51:50.318Z,70.70
2019-05-06T00:54:29.559Z,69.96
2019-05-06T00:57:00.163Z,70.22
2019-05-06T00:59:30.828Z,69.82
2019-05-06T01:02:01.593Z,69.77
2019-05-06T01:04:50.188Z,69.86
2019-05-06T01:07:20.798Z,69.77
2019-05-06T01:09:51.469Z,70.16
2019-05-06T01:12:24.317Z,69.79
2019-05-06T01:15:07.909Z,70.66
2019-05-06T01:17:40.702Z,71.27
2019-05-06T01:20:11.418Z,71.36
2019-05-06T01:22:45.238Z,70.97
2019-05-06T01:25:15.898Z,70.96
2019-05-06T01:27:46.486Z,70.50
2019-05-06T01:30:18.150Z,70.56
2019-05-06T01:32:48.817Z,70.08
2019-05-06T01:35:19.421Z,71.12
2019-05-06T01:37:51.868Z,71.54
2019-05-06T01:40:34.578Z,71.50
2019-05-06T01:43:06.957Z,70.81
2019-05-06T01:45:48.751Z,71.47
2019-05-06T01:48:21.047Z,70.86
2019-05-06T01:50:51.707Z,70.15
2019-05-06T01:53:24.190Z,70.31
2019-05-06T01:55:56.999Z,70.98
2019-05-06T01:58:29.719Z,69.94
2019-05-06T02:01:00.404Z,70.71
2019-05-06T02:03:31.221Z,70.65
2019-05-06T02:06:02.111Z,70.87
2019-05-06T02:08:34.338Z,70.82
2019-05-06T02:11:08.847Z,70.48
2019-05-06T02:13:47.962Z,70.80
2019-05-06T02:16:20.296Z,70.33
2019-05-06T02:18:54.138Z,70.49
2019-05-06T02:21:28.107Z,69.91
2019-05-06T02:24:07.099Z,70.13
2019-05-06T02:26:39.241Z,70.68
2019-05-06T02:29:16.186Z,70.27
2019-05-06T02:32:17.047Z,70.61
2019-05-06T02:34:45.876Z,70.63
2019-05-06T02:37:25.492Z,70.41
2019-05-06T02:39:57.941Z,70.75
2019-05-06T02:42:29.998Z,70.60
2019-05-06T02:45:04.021Z,70.75
2019-05-06T02:47:45.000Z,71.06
2019-05-06T02:50:23.907Z,71.41
2019-05-06T02:52:55.952Z,70.14
2019-05-06T02:55:33.264Z,70.89
2019-05-06T02:58:04.296Z,70.66
2019-05-06T03:00:35.190Z,70.78
2019-05-06T03:03:06.004Z,71.98
2019-05-06T03:05:39.289Z,72.50
2019-05-06T03:08:13.218Z,71.75
2019-05-06T03:10:44.243Z,71.29
2019-05-06T03:13:15.547Z,71.08
2019-05-06T03:15:47.035Z,71.15
2019-05-06T03:18:32.829Z,70.55
2019-05-06T03:21:14.202Z,71.59
2019-05-06T03:24:03.938Z,71.09
2019-05-06T03:26:45.610Z,71.35
2019-05-06T03:29:17.100Z,70.58
2019-05-06T03:31:49.356Z,71.88
2019-05-06T03:34:52.226Z,71.67
2019-05-06T03:37:07.329Z,71.78
2019-05-06T03:39:45.664Z,72.29
2019-05-06T03:42:17.069Z,72.03
2019-05-06T03:44:53.186Z,71.90
2019-05-06T03:47:26.160Z,72.46
2019-05-06T03:50:13.122Z,71.97
2019-05-06T03:52:44.314Z,71.61
2019-05-06T03:55:15.241Z,72.24
2019-05-06T03:57:48.153Z,71.61
2019-05-06T04:00:26.870Z,72.60
2019-05-06T04:03:02.920Z,71.98
2019-05-06T04:05:40.111Z,71.75
2019-05-06T04:08:12.738Z,71.34
2019-05-06T04:10:45.327Z,71.52
2019-05-06T04:13:24.163Z,71.75
2019-05-06T04:16:13.858Z,72.03
2019-05-06T04:18:47.861Z,71.58
2019-05-06T04:21:25.883Z,72.34
2019-05-06T04:23:58.265Z,71.73
2019-05-06T04:26:47.337Z,72.55
2019-05-06T04:29:20.311Z,71.72
2019-05-06T04:31:59.371Z,72.11
2019-05-06T04:34:33.161Z,71.46
2019-05-06T04:37:08.290Z,71.23
2019-05-06T04:39:53.338Z,71.61
2019-05-06T04:42:27.034Z,71.64
2019-05-06T04:45:17.738Z,72.80
2019-05-06T04:48:03.592Z,72.46
2019-05-06T04:50:44.457Z,72.62
2019-05-06T04:53:15.546Z,72.76
2019-05-06T04:55:53.950Z,72.30
2019-05-06T04:58:34.969Z,72.49
2019-05-06T05:01:05.771Z,72.51
2019-05-06T05:03:36.661Z,72.69
2019-05-06T05:06:07.299Z,72.15
2019-05-06T05:08:38.361Z,72.05
2019-05-06T05:11:29.220Z,71.97
2019-05-06T05:14:02.837Z,72.02
2019-05-06T05:16:53.857Z,71.68
2019-05-06T05:19:24.555Z,71.41
2019-05-06T05:21:56.987Z,71.82
2019-05-06T05:24:27.874Z,71.82
2019-05-06T05:26:58.590Z,73.09
2019-05-06T05:29:34.356Z,72.35
2019-05-06T05:32:07.107Z,72.39
2019-05-06T05:34:43.591Z,73.11
2019-05-06T05:37:15.165Z,72.79
2019-05-06T05:39:46.049Z,72.55
2019-05-06T05:42:32.757Z,71.46
2019-05-06T05:45:03.807Z,71.43
2019-05-06T05:47:34.388Z,72.07
2019-05-06T05:50:13.391Z,70.88
2019-05-06T05:52:44.109Z,71.35
2019-05-06T05:55:14.922Z,70.67
2019-05-06T05:57:45.489Z,72.39
2019-05-06T06:00:17.156Z,72.46
2019-05-06T06:02:47.741Z,72.69
2019-05-06T06:05:18.387Z,73.19
2019-05-06T06:08:10.065Z,73.30
2019-05-06T06:10:46.165Z,72.10
2019-05-06T06:13:16.811Z,71.93
2019-05-06T06:16:04.441Z,71.59
2019-05-06T06:18:43.151Z,72.70
2019-05-06T06:21:24.711Z,71.80
2019-05-06T06:24:04.465Z,72.09
2019-05-06T06:26:35.186Z,72.59
2019-05-06T06:29:05.881Z,72.28
2019-05-06T06:31:44.733Z,72.07
2019-05-06T06:34:29.242Z,72.26
2019-05-06T06:37:17.861Z,72.17
2019-05-06T06:39:52.719Z,72.43
2019-05-06T06:42:23.461Z,72.27
2019-05-06T06:44:54.303Z,72.38
2019-05-06T06:47:25.052Z,72.20
2019-05-06T06:49:55.757Z,71.54
2019-05-06T06:52:26.427Z,71.80
2019-05-06T06:55:12.970Z,71.84
2019-05-06T06:58:02.722Z,71.25
2019-05-06T07:00:35.189Z,71.20
2019-05-06T07:03:07.787Z,71.36
2019-05-06T07:05:59.863Z,70.74
2019-05-06T07:08:37.253Z,67.60
2019-05-06T07:11:03.650Z,69.30
2019-05-06T07:13:34.716Z,68.38
2019-05-06T07:16:05.491Z,68.74
2019-05-06T07:18:36.336Z,69.05
2019-05-06T07:21:14.028Z,68.93
2019-05-06T07:23:50.235Z,65.00
2019-05-06T07:26:23.863Z,63.50
2019-05-06T07:29:16.896Z,63.08
2019-05-06T07:31:50.470Z,64.08
2019-05-06T07:34:22.879Z,63.36
2019-05-06T07:37:03.234Z,62.22
2019-05-06T07:39:33.755Z,61.81
2019-05-06T07:42:06.738Z,61.84
2019-05-06T07:44:55.623Z,62.33
2019-05-06T07:47:33.601Z,61.87
2019-05-06T07:50:08.466Z,62.64
2019-05-06T07:52:39.169Z,63.10
2019-05-06T07:55:22.968Z,61.82
2019-05-06T07:57:55.025Z,61.38
2019-05-06T08:00:32.763Z,61.48
2019-05-06T08:03:08.155Z,61.91
2019-05-06T08:05:58.066Z,60.84
2019-05-06T08:08:18.419Z,61.21
2019-05-06T08:10:52.743Z,61.63
2019-05-06T08:13:23.686Z,61.77
2019-05-06T08:15:55.308Z,61.51
2019-05-06T08:18:26.485Z,60.91
2019-05-06T08:21:02.364Z,60.52
2019-05-06T08:23:34.441Z,60.40
2019-05-06T08:26:12.676Z,61.12
2019-05-06T08:28:44.547Z,60.11
2019-05-06T08:31:16.891Z,59.84
2019-05-06T08:33:47.763Z,59.54
2019-05-06T08:36:20.137Z,59.22
2019-05-06T08:39:02.769Z,59.81
2019-05-06T08:41:35.062Z,57.56
2019-05-06T08:44:07.076Z,57.23
2019-05-06T08:46:37.906Z,57.12
2019-05-06T08:49:12.323Z,56.19
2019-05-06T08:51:59.019Z,57.35
2019-05-06T08:54:34.290Z,57.80
2019-05-06T08:57:05.141Z,56.38
2019-05-06T08:59:35.813Z,53.87
2019-05-06T09:02:07.461Z,54.57
2019-05-06T09:04:44.157Z,55.25
2019-05-06T09:07:23.909Z,55.52
2019-05-06T09:10:02.542Z,55.12
2019-05-06T09:12:33.131Z,54.57
2019-05-06T09:15:08.533Z,53.26
2019-05-06T09:17:39.359Z,52.11
2019-05-06T09:20:12.906Z,53.84
2019-05-06T09:22:46.096Z,54.16
2019-05-06T09:25:16.970Z,54.48
2019-05-06T09:27:49.386Z,55.05
2019-05-06T09:30:33.036Z,55.38
2019-05-06T09:33:03.885Z,55.56
2019-05-06T09:35:44.970Z,54.62
2019-05-06T09:38:23.782Z,53.69
2019-05-06T09:41:09.689Z,54.00
2019-05-06T09:43:45.033Z,54.60
2019-05-06T09:46:19.153Z,54.25
2019-05-06T09:49:13.212Z,55.71
2019-05-06T09:51:44.062Z,55.87
2019-05-06T09:54:19.391Z,55.64
2019-05-06T09:56:59.051Z,55.20
2019-05-06T09:59:32.258Z,55.01
2019-05-06T10:02:06.247Z,55.95
2019-05-06T10:04:46.180Z,55.75
2019-05-06T10:07:22.568Z,56.36
2019-05-06T10:09:53.824Z,57.99
2019-05-06T10:12:24.568Z,57.22
2019-05-06T10:14:55.352Z,57.31
2019-05-06T10:17:25.984Z,57.50
2019-05-06T10:19:56.764Z,58.11
2019-05-06T10:22:27.507Z,58.27
2019-05-06T10:24:58.350Z,57.52
2019-05-06T10:27:43.768Z,57.52
2019-05-06T10:30:16.013Z,57.10
2019-05-06T10:32:54.137Z,57.30
2019-05-06T10:35:29.156Z,57.29
2019-05-06T10:38:33.590Z,58.10
2019-05-06T10:41:13.787Z,57.80
2019-05-06T10:44:09.700Z,57.40
2019-05-06T10:46:53.993Z,58.31
2019-05-06T10:49:24.919Z,58.04
2019-05-06T10:52:16.324Z,57.67
2019-05-06T10:54:51.661Z,57.92
2019-05-06T10:57:25.149Z,58.71
2019-05-06T11:00:00.687Z,58.17
2019-05-06T11:02:34.297Z,60.03
2019-05-06T11:05:06.481Z,60.86
2019-05-06T11:07:43.086Z,60.05
2019-05-06T11:10:25.035Z,59.60
2019-05-06T11:12:52.360Z,58.63
2019-05-06T11:15:33.094Z,58.46
2019-05-06T11:18:05.116Z,57.44
2019-05-06T11:20:35.870Z,57.24
2019-05-06T11:23:07.624Z,54.24
2019-05-06T11:25:38.369Z,54.99
2019-05-06T11:28:12.577Z,53.96
2019-05-06T11:30:52.871Z,52.58
2019-05-06T11:33:29.832Z,52.63
2019-05-06T11:36:04.939Z,52.27
2019-05-06T11:38:43.121Z,52.77
2019-05-06T11:41:14.189Z,53.16
2019-05-06T11:43:44.926Z,54.01
2019-05-06T11:46:15.738Z,52.84
2019-05-06T11:48:46.561Z,53.38
2019-05-06T11:51:19.134Z,53.17
2019-05-06T11:53:53.901Z,52.79
2019-05-06T11:56:25.913Z,52.58
2019-05-06T11:58:58.501Z,50.73
2019-05-06T12:01:36.844Z,52.30
2019-05-06T12:04:07.590Z,52.45
2019-05-06T12:06:39.489Z,53.55
2019-05-06T12:09:16.307Z,52.79
2019-05-06T12:11:47.314Z,52.36
2019-05-06T12:14:18.097Z,52.49
2019-05-06T12:16:58.916Z,54.37
2019-05-06T12:19:32.226Z,50.70
2019-05-06T12:22:02.419Z,50.62
2019-05-06T12:24:33.329Z,51.02
2019-05-06T12:27:07.831Z,51.36
2019-05-06T12:29:38.696Z,52.23
2019-05-06T12:32:17.932Z,51.08
2019-05-06T12:34:52.445Z,50.63
2019-05-06T12:37:24.991Z,52.11
2019-05-06T12:39:59.662Z,51.44
2019-05-06T12:42:39.273Z,52.00
2019-05-06T12:45:17.582Z,53.01
2019-05-06T12:47:50.178Z,52.81
2019-05-06T12:50:26.491Z,54.86
2019-05-06T12:53:09.819Z,53.26
2019-05-06T12:55:42.900Z,51.82
2019-05-06T12:58:23.071Z,52.34
2019-05-06T13:00:56.994Z,52.93
2019-05-06T13:03:27.914Z,52.77
2019-05-06T13:06:06.933Z,53.07
2019-05-06T13:08:52.864Z,52.44
2019-05-06T13:11:12.986Z,52.01
2019-05-06T13:13:57.421Z,51.93
2019-05-06T13:16:25.377Z,52.74
2019-05-06T13:18:56.248Z,52.74
2019-05-06T13:21:32.803Z,52.98
2019-05-06T13:24:12.106Z,53.94
2019-05-06T13:26:45.104Z,53.03
2019-05-06T13:29:22.857Z,53.82
2019-05-06T13:31:57.980Z,52.34
2019-05-06T13:34:38.012Z,52.56
2019-05-06T13:37:23.035Z,52.30
2019-05-06T13:39:54.086Z,52.36
2019-05-06T13:42:27.523Z,52.91
2019-05-06T13:45:03.305Z,52.25
2019-05-06T13:47:48.957Z,52.22
2019-05-06T13:50:27.861Z,51.94
2019-05-06T13:53:11.187Z,52.55
2019-05-06T13:55:39.415Z,53.42
2019-05-06T13:58:12.391Z,52.81
2019-05-06T14:00:52.423Z,53.35
2019-05-06T14:03:28.291Z,53.17
2019-05-06T14:06:03.844Z,54.20
2019-05-06T14:08:37.925Z,54.17
2019-05-06T14:11:32.316Z,53.66
2019-05-06T14:14:29.070Z,53.41
2019-05-06T14:17:04.744Z,53.29
2019-05-06T14:19:35.512Z,54.56
2019-05-06T14:22:12.617Z,53.79
2019-05-06T14:24:46.071Z,54.54
2019-05-06T14:27:22.042Z,53.55
2019-05-06T14:29:54.344Z,53.95
2019-05-06T14:32:37.439Z,53.68
2019-05-06T14:35:08.624Z,54.29
2019-05-06T14:37:39.472Z,53.48
2019-05-06T14:40:13.507Z,53.80
2019-05-06T14:42:53.032Z,53.31
2019-05-06T14:45:23.932Z,52.64
2019-05-06T14:47:58.990Z,52.30
2019-05-06T14:50:44.409Z,51.78
2019-05-06T14:53:03.471Z,52.69
2019-05-06T14:55:35.974Z,52.68
2019-05-06T14:58:07.117Z,53.94
2019-05-06T15:00:38.003Z,53.82
2019-05-06T15:03:12.949Z,53.75
2019-05-06T15:05:45.219Z,54.57
2019-05-06T15:08:16.011Z,55.43
2019-05-06T15:10:49.540Z,56.91
2019-05-06T15:13:22.749Z,58.97
2019-05-06T15:15:53.008Z,60.02
2019-05-06T15:18:32.914Z,59.28
2019-05-06T15:21:29.104Z,60.45
2019-05-06T15:23:42.534Z,59.71
2019-05-06T15:26:13.372Z,61.53
2019-05-06T15:28:52.868Z,60.32
2019-05-06T15:31:29.410Z,60.34
2019-05-06T15:34:02.698Z,60.50
2019-05-06T15:36:42.386Z,61.30
2019-05-06T15:39:13.308Z,62.38
2019-05-06T15:41:44.154Z,63.17
2019-05-06T15:44:15.162Z,63.90
2019-05-06T15:46:47.986Z,64.33
2019-05-06T15:49:22.299Z,65.61
2019-05-06T15:51:52.923Z,65.33
2019-05-06T15:54:34.665Z,66.02
2019-05-06T15:57:12.775Z,66.81
2019-05-06T15:59:44.641Z,67.19
2019-05-06T16:02:19.804Z,66.82
2019-05-06T16:04:50.512Z,65.98
2019-05-06T16:07:26.186Z,67.46
2019-05-06T16:09:56.999Z,66.44
2019-05-06T16:12:27.681Z,67.46
2019-05-06T16:14:59.531Z,68.21
2019-05-06T16:17:30.209Z,67.59
2019-05-06T16:20:07.222Z,68.22
2019-05-06T16:22:37.907Z,68.48
2019-05-06T16:25:15.675Z,68.09
2019-05-06T16:27:51.052Z,67.61
2019-05-06T16:30:24.107Z,67.95
2019-05-06T16:32:52.900Z,68.10
2019-05-06T16:35:23.752Z,67.79
2019-05-06T16:37:54.513Z,67.70
2019-05-06T16:40:25.397Z,68.35
2019-05-06T16:42:56.249Z,67.45
2019-05-06T16:45:27.911Z,68.35
2019-05-06T16:47:58.530Z,67.23
2019-05-06T16:50:29.872Z,67.72
2019-05-06T16:53:02.734Z,68.62
2019-05-06T16:55:55.550Z,68.87
2019-05-06T16:58:47.206Z,68.98
2019-05-06T17:01:18.007Z,69.46
2019-05-06T17:04:08.735Z,69.66
2019-05-06T17:06:42.990Z,69.67
2019-05-06T17:09:26.917Z,69.84
2019-05-06T17:11:58.622Z,69.94
2019-05-06T17:14:29.361Z,69.12
2019-05-06T17:17:03.077Z,68.75
2019-05-06T17:19:33.439Z,69.51
2019-05-06T17:22:06.161Z,68.82
2019-05-06T17:24:38.809Z,68.41
2019-05-06T17:27:11.921Z,66.75
2019-05-06T17:29:49.685Z,67.32
2019-05-06T17:32:27.982Z,67.52
2019-05-06T17:35:02.681Z,67.37
2019-05-06T17:37:52.703Z,67.73
2019-05-06T17:40:28.272Z,67.23
2019-05-06T17:42:59.071Z,68.51
2019-05-06T17:45:40.319Z,67.96
2019-05-06T17:48:28.056Z,67.55
2019-05-06T17:51:18.308Z,67.10
2019-05-06T17:53:55.867Z,66.39
2019-05-06T17:56:29.706Z,67.33
2019-05-06T17:59:03.744Z,66.42
2019-05-06T18:01:38.708Z,66.41
2019-05-06T18:04:09.309Z,66.62
2019-05-06T18:06:42.219Z,66.60
2019-05-06T18:09:13.317Z,66.36
2019-05-06T18:11:57.981Z,66.98
2019-05-06T18:14:23.204Z,66.70
2019-05-06T18:16:54.144Z,67.82
2019-05-06T18:19:24.926Z,67.77
2019-05-06T18:21:55.577Z,67.57
2019-05-06T18:24:26.265Z,67.72
2019-05-06T18:26:56.925Z,67.54
2019-05-06T18:29:28.468Z,67.96
2019-05-06T18:32:03.527Z,68.10
2019-05-06T18:34:33.451Z,68.59
2019-05-06T18:37:07.345Z,69.11
2019-05-06T18:39:42.336Z,68.81
2019-05-06T18:42:19.872Z,68.47
2019-05-06T18:44:47.051Z,69.07
2019-05-06T18:47:19.619Z,69.00
2019-05-06T18:49:53.655Z,69.88
2019-05-06T18:52:24.244Z,68.98
2019-05-06T18:55:02.324Z,69.05
2019-05-06T18:57:33.187Z,67.94
2019-05-06T19:00:04.190Z,67.74
2019-05-06T19:02:36.504Z,67.32
2019-05-06T19:05:28.150Z,66.43
2019-05-06T19:07:58.750Z,66.88
2019-05-06T19:10:34.524Z,67.15
2019-05-06T19:13:05.185Z,66.89
2019-05-06T19:15:45.249Z,66.47
2019-05-06T19:18:19.078Z,66.61
2019-05-06T19:20:49.940Z,66.77
2019-05-06T19:23:22.495Z,67.36
2019-05-06T19:25:53.086Z,66.24
2019-05-06T19:28:23.671Z,66.49
2019-05-06T19:30:55.374Z,66.06
2019-05-06T19:33:25.962Z,66.07
2019-05-06T19:35:56.745Z,65.56
2019-05-06T19:38:27.247Z,65.65
2019-05-06T19:40:57.926Z,65.42
2019-05-06T19:43:28.602Z,66.04
2019-05-06T19:46:02.749Z,65.65
2019-05-06T19:48:33.802Z,66.05
2019-05-06T19:51:06.540Z,66.25
2019-05-06T19:53:37.149Z,65.24
2019-05-06T19:56:08.975Z,64.94
2019-05-06T19:58:42.870Z,65.54
2019-05-06T20:01:18.283Z,66.03
2019-05-06T20:03:49.417Z,65.27
2019-05-06T20:06:24.885Z,65.26
2019-05-06T20:09:13.253Z,65.88
2019-05-06T20:11:45.240Z,65.54
2019-05-06T20:14:16.119Z,65.30
2019-05-06T20:16:52.955Z,64.85
2019-05-06T20:19:30.657Z,65.53
2019-05-06T20:21:57.018Z,64.31
2019-05-06T20:24:33.079Z,63.44
2019-05-06T20:27:03.838Z,63.57
2019-05-06T20:29:42.761Z,62.49
2019-05-06T20:32:16.821Z,62.16
2019-05-06T20:34:58.670Z,61.49
2019-05-06T20:37:29.466Z,61.36
2019-05-06T20:40:02.334Z,61.06
2019-05-06T20:42:32.829Z,59.96
2019-05-06T20:45:03.575Z,59.82
2019-05-06T20:47:39.705Z,60.09
2019-05-06T20:50:10.555Z,59.66
2019-05-06T20:52:46.890Z,59.97
2019-05-06T20:55:18.472Z,60.52
2019-05-06T20:57:52.875Z,59.96
2019-05-06T21:00:24.079Z,59.96
2019-05-06T21:02:54.957Z,59.93
2019-05-06T21:05:29.086Z,59.75
2019-05-06T21:08:10.041Z,59.21
2019-05-06T21:10:42.522Z,58.55
2019-05-06T21:13:21.968Z,58.98
2019-05-06T21:15:46.950Z,57.66
2019-05-06T21:18:19.001Z,57.03
2019-05-06T21:20:54.381Z,57.74
2019-05-06T21:23:34.226Z,57.15
2019-05-06T21:26:06.268Z,56.99
2019-05-06T21:28:36.916Z,57.42
2019-05-06T21:31:07.655Z,57.49
2019-05-06T21:33:38.350Z,57.09
2019-05-06T21:36:15.091Z,57.48
2019-05-06T21:38:45.688Z,58.15
2019-05-06T21:41:17.862Z,58.21
2019-05-06T21:43:50.116Z,58.97
2019-05-06T21:46:26.919Z,59.04
2019-05-06T21:48:57.610Z,59.00
2019-05-06T21:51:29.013Z,58.54
2019-05-06T21:54:02.324Z,59.52
2019-05-06T21:56:32.567Z,59.22
2019-05-06T21:59:03.323Z,58.97
2019-05-06T22:01:45.083Z,59.50
2019-05-06T22:04:15.951Z,59.57
2019-05-06T22:07:12.105Z,58.92
2019-05-06T22:09:45.303Z,59.68
2019-05-06T22:12:18.205Z,59.34
2019-05-06T22:14:49.426Z,58.83
2019-05-06T22:17:22.449Z,59.69
2019-05-06T22:19:52.838Z,58.36
2019-05-06T22:22:30.072Z,58.41
2019-05-06T22:25:05.897Z,58.07
2019-05-06T22:27:37.096Z,58.63
2019-05-06T22:30:07.964Z,58.03
2019-05-06T22:32:47.532Z,58.25
2019-05-06T22:35:18.211Z,59.25
2019-05-06T22:37:54.814Z,59.07
2019-05-06T22:40:32.761Z,57.85
2019-05-06T22:43:03.451Z,59.56
2019-05-06T22:45:47.549Z,58.29
2019-05-06T22:48:19.282Z,58.64
2019-05-06T22:50:50.018Z,59.02
2019-05-06T22:53:22.177Z,59.35
2019-05-06T22:55:54.753Z,59.13
2019-05-06T22:58:25.561Z,59.34
2019-05-06T23:00:57.635Z,59.30
2019-05-06T23:03:34.570Z,59.89
2019-05-06T23:06:04.914Z,60.66
2019-05-06T23:08:43.284Z,60.57
2019-05-06T23:11:15.468Z,60.61
2019-05-06T23:13:46.269Z,60.65
2019-05-06T23:16:17.143Z,60.35
2019-05-06T23:18:49.300Z,61.68
2019-05-06T23:21:23.219Z,61.67
2019-05-06T23:23:54.657Z,61.69
2019-05-06T23:26:35.319Z,61.49
2019-05-06T23:29:05.981Z,61.25
2019-05-06T23:31:36.740Z,60.43
2019-05-06T23:34:08.172Z,60.32
2019-05-06T23:37:23.225Z,60.53
2019-05-06T23:40:33.215Z,61.04
2019-05-06T23:43:43.694Z,61.27
2019-05-06T23:46:52.791Z,62.09
2019-05-06T23:50:00.770Z,62.03
2019-05-06T23:53:07.613Z,60.95
2019-05-06T23:56:14.893Z,61.75
2019-05-06T23:58:46.360Z,61.00
